Search for airport 
image banner adimage banner adimage banner ad
image banner ad

KLWL - Wells Muni/Harriet Field

Located in Wells, United States

ICAO - LWL, IATA - LWL

Data provided by Airmate  

General information

Coordinates: N41°7'2" W114°55'20"
Elevation is 5769 feet MSL.
Magnetic variation is 17° East
View others Airports in Nevada

Operational data

Special qualification required
Current time UTC:
Current local time:
Weather at : KEKO - Elko Rgnl ( 80 km )
METAR: KEKO 130056Z AUTO 29009KT 10SM CLR 31/M01 A2999 RMK AO2 SLP105 T03111011
TAF: KEKO 122320Z 1300/1324 VRB06KT P6SM FEW200 FM131900 20007G17KT P6SM SKC
View NOTAMs / SUP AIP / TFR affecting this airport [VIEW]
Communications frequencies: [VIEW]

Runways:

RWY identifierQFULength (ft)Width (ft)SurfaceLDA (ft)
0127°2681140OTHER
19207°2681140OTHER
08101°550875ASPH
26281°550875ASPH

Airport contact information

Address: Wells United States

Satellite view of KLWL